Time;durP1;ratioP1;P1;durP2;ratioP2;P2;SDS_P1;SDS_P2;PMS_P1;PMS_P2;Temp;Humidity;BMP_temperature;BMP_pressure;BME280_temperature;BME280_humidity;BME280_pressure;Samples;Min_cycle;Max_cycle;Signal;HPM_P1;HPM_P2
2022/11/14 00:02:10;;;;;;;12.00;9.07;;;;;;;2.93;100.00;152117.47;4955722;28;20430;-85
2022/11/14 00:05:15;;;;;;;12.50;9.50;;;;;;;2.93;100.00;152117.47;4954275;29;20518;-85
2022/11/14 00:08:24;;;;;;;10.90;9.33;;;;;;;2.88;100.00;152104.59;4970309;28;20861;-85
2022/11/14 00:11:28;;;;;;;12.27;9.87;;;;;;;2.87;100.00;152103.31;4964198;28;20497;-85
2022/11/14 00:14:32;;;;;;;11.70;8.90;;;;;;;2.86;100.00;152100.72;4972689;28;20476;-85
2022/11/14 00:17:36;;;;;;;12.43;10.60;;;;;;;2.83;100.00;152093.00;4964616;28;20449;-84
2022/11/14 00:20:40;;;;;;;14.00;10.40;;;;;;;2.84;100.00;152094.28;4956493;29;20942;-85
2022/11/14 00:23:46;;;;;;;11.67;9.20;;;;;;;2.83;100.00;152091.75;4955217;29;20780;-83
2022/11/14 00:26:50;;;;;;;12.70;9.50;;;;;;;2.78;100.00;152078.88;4967452;28;20533;-85
2022/11/14 00:29:55;;;;;;;11.77;8.77;;;;;;;2.75;100.00;152071.16;4967780;28;20451;-85
2022/11/14 00:32:59;;;;;;;10.13;8.87;;;;;;;2.75;100.00;152072.47;4951906;29;20779;-85
2022/11/14 00:36:03;;;;;;;12.80;10.63;;;;;;;2.78;100.00;152078.88;4971914;28;20430;-85
2022/11/14 00:39:12;;;;;;;13.23;10.43;;;;;;;2.72;100.00;152064.75;4968731;28;20585;-85
2022/11/14 00:42:15;;;;;;;13.97;10.07;;;;;;;2.71;100.00;152062.16;4972387;28;20453;-85
2022/11/14 00:45:20;;;;;;;12.80;9.43;;;;;;;2.68;100.00;152053.13;4967141;28;20477;-85
2022/11/14 00:48:24;;;;;;;12.20;10.03;;;;;;;2.63;100.00;152040.25;4968328;28;21008;-85
2022/11/14 00:51:28;;;;;;;12.53;9.77;;;;;;;2.59;100.00;152031.28;4961260;28;20426;-85
2022/11/14 00:54:34;;;;;;;10.73;9.00;;;;;;;2.56;100.00;152022.28;4965550;28;21042;-85
2022/11/14 00:57:38;;;;;;;12.70;10.00;;;;;;;2.50;100.00;152008.13;4951829;29;20812;-85
2022/11/14 01:00:42;;;;;;;15.37;11.40;;;;;;;2.47;100.00;152001.69;4952950;28;20965;-85
2022/11/14 01:03:48;;;;;;;12.87;10.27;;;;;;;2.45;100.00;151995.28;4971872;28;20508;-85
2022/11/14 01:06:52;;;;;;;14.70;11.40;;;;;;;2.37;100.00;151976.00;4958797;28;20977;-85
2022/11/14 01:09:57;;;;;;;15.83;10.90;;;;;;;2.34;100.00;151968.25;4952066;28;20850;-85
2022/11/14 01:13:01;;;;;;;14.97;11.00;;;;;;;2.32;100.00;151963.13;4960803;28;20486;-85
2022/11/14 01:16:07;;;;;;;15.73;10.53;;;;;;;2.29;100.00;151954.13;4952552;29;20544;-85
2022/11/14 01:19:11;;;;;;;17.80;11.07;;;;;;;2.26;100.00;151947.69;4961200;28;20486;-86
2022/11/14 01:22:15;;;;;;;13.43;10.13;;;;;;;2.22;100.00;151936.13;4973727;28;20496;-86
2022/11/14 01:25:21;;;;;;;14.10;11.17;;;;;;;2.19;100.00;151928.41;4975774;28;20529;-86
2022/11/14 01:28:24;;;;;;;12.40;9.80;;;;;;;2.20;100.00;151932.25;4965959;28;20462;-86
2022/11/14 01:31:28;;;;;;;13.03;10.30;;;;;;;2.21;100.00;151934.84;4966752;28;20509;-86
2022/11/14 01:34:33;;;;;;;12.43;9.87;;;;;;;2.25;100.00;151945.09;4964402;28;20462;-86
2022/11/14 01:37:37;;;;;;;12.10;9.60;;;;;;;2.20;100.00;151932.25;4962733;28;20890;-86
2022/11/14 01:40:43;;;;;;;12.20;10.07;;;;;;;2.18;100.00;151927.13;4977952;28;20496;-86
2022/11/14 01:43:47;;;;;;;12.50;9.20;;;;;;;2.18;100.00;151927.13;4976048;28;20833;-87
2022/11/14 01:46:55;;;;;;;10.57;8.87;;;;;;;2.21;100.00;151933.53;4963315;28;20518;-87
2022/11/14 01:50:01;;;;;;;11.33;8.53;;;;;;;2.22;100.00;151937.44;4961411;28;20486;-87
2022/11/14 01:53:05;;;;;;;12.20;10.10;;;;;;;2.19;100.00;151928.41;4963898;28;20449;-87
2022/11/14 01:56:12;;;;;;;12.20;10.07;;;;;;;2.15;100.00;151918.09;4960699;28;20505;-87
2022/11/14 01:59:19;;;;;;;13.40;9.57;;;;;;;2.10;100.00;151906.53;4990251;28;21016;-87
2022/11/14 02:02:24;;;;;;;13.60;9.00;;;;;;;2.06;100.00;151896.28;4974436;28;20437;-87
2022/11/14 02:05:29;;;;;;;10.20;8.37;;;;;;;2.10;100.00;151906.53;4958767;28;20548;-87
2022/11/14 02:08:34;;;;;;;9.80;7.97;;;;;;;2.12;100.00;151911.69;4965451;28;20447;-87
2022/11/14 02:11:43;;;;;;;10.90;9.00;;;;;;;2.16;100.00;151921.97;4974208;28;20425;-87
2022/11/14 02:14:53;;;;;;;14.17;9.27;;;;;;;2.12;100.00;151911.69;4955258;28;20471;-87
2022/11/14 02:17:58;;;;;;;12.03;9.10;;;;;;;2.13;100.00;151914.25;4955910;29;20420;-87
2022/11/14 02:21:03;;;;;;;13.10;9.27;;;;;;;2.12;100.00;151911.69;4955416;29;20431;-87
2022/11/14 02:24:09;;;;;;;11.37;8.57;;;;;;;2.12;100.00;151911.69;4958325;28;21040;-87
2022/11/14 02:27:14;;;;;;;12.30;8.80;;;;;;;2.16;100.00;151920.69;4968400;28;20418;-87
2022/11/14 02:30:21;;;;;;;14.70;9.43;;;;;;;2.20;100.00;151930.94;4975218;28;20438;-87
2022/11/14 02:33:25;;;;;;;15.63;9.77;;;;;;;2.16;100.00;151920.69;4977251;28;20580;-87
2022/11/14 02:36:30;;;;;;;10.87;8.30;;;;;;;2.14;100.00;151916.84;4955976;29;20403;-88
2022/11/14 02:39:35;;;;;;;24.37;9.70;;;;;;;2.15;100.00;151919.41;4972522;28;20485;-88
2022/11/14 02:42:39;;;;;;;12.97;8.93;;;;;;;2.15;100.00;151918.09;4970982;28;20840;-88
2022/11/14 02:45:44;;;;;;;16.60;9.20;;;;;;;2.14;100.00;151915.56;4956563;29;20466;-88
2022/11/14 02:48:48;;;;;;;14.47;8.50;;;;;;;2.14;100.00;151915.56;4991896;28;20508;-88
2022/11/14 02:51:53;;;;;;;45.70;11.07;;;;;;;2.12;100.00;151911.69;4967919;28;20455;-88
2022/11/14 02:54:57;;;;;;;11.03;8.47;;;;;;;2.12;100.00;151911.69;4959660;29;20434;-88
2022/11/14 02:58:02;;;;;;;34.73;9.60;;;;;;;2.15;100.00;151918.09;4960671;28;20474;-88
2022/11/14 03:01:06;;;;;;;24.93;10.10;;;;;;;2.13;100.00;151914.25;4966463;28;20835;-88
2022/11/14 03:04:10;;;;;;;17.03;9.90;;;;;;;2.11;100.00;151907.84;4958245;28;20570;-88
2022/11/14 03:07:16;;;;;;;12.27;9.33;;;;;;;2.12;100.00;151911.69;4964641;28;20489;-88
2022/11/14 03:10:20;;;;;;;12.37;9.23;;;;;;;2.10;100.00;151906.53;4965610;28;20474;-88
2022/11/14 03:13:28;;;;;;;17.60;11.57;;;;;;;2.07;100.00;151897.53;4958966;28;20492;-88
2022/11/14 03:16:33;;;;;;;17.53;10.50;;;;;;;2.03;100.00;151888.56;4971810;28;20465;-88
2022/11/14 03:19:37;;;;;;;15.93;10.40;;;;;;;2.04;100.00;151891.09;4965858;28;20450;-88
2022/11/14 03:22:42;;;;;;;19.40;11.60;;;;;;;1.97;100.00;151871.81;4965231;28;20458;-88
2022/11/14 03:25:46;;;;;;;22.03;10.80;;;;;;;1.90;100.00;151853.84;4980974;28;20899;-88
2022/11/14 03:28:51;;;;;;;21.67;10.47;;;;;;;1.88;100.00;151849.97;4982727;28;20456;-88
2022/11/14 03:31:55;;;;;;;16.40;10.23;;;;;;;1.84;100.00;151839.72;4973377;28;20450;-88
2022/11/14 03:34:59;;;;;;;14.40;10.23;;;;;;;1.89;100.00;151851.25;4955518;28;21118;-88
2022/11/14 03:38:04;;;;;;;12.37;9.23;;;;;;;1.89;100.00;151852.56;4969461;28;20485;-88
2022/11/14 03:41:08;;;;;;;17.30;9.20;;;;;;;1.90;100.00;151853.84;4962904;28;20505;-88
2022/11/14 03:44:13;;;;;;;10.47;8.47;;;;;;;1.90;100.00;151855.16;4954642;29;20435;-76
2022/11/14 03:47:17;;;;;;;11.83;9.63;;;;;;;1.92;100.00;151858.97;4963098;28;20462;-76
2022/11/14 03:50:21;;;;;;;11.00;8.87;;;;;;;1.89;100.00;151852.56;4954427;28;20491;-76
2022/11/14 03:53:27;;;;;;;10.23;8.50;;;;;;;1.89;100.00;151851.25;4955473;28;20485;-75
2022/11/14 03:56:31;;;;;;;10.47;8.30;;;;;;;1.89;100.00;151852.56;4963672;28;20546;-75
2022/11/14 03:59:35;;;;;;;10.33;8.73;;;;;;;1.97;100.00;151873.13;4953814;28;20505;-75
2022/11/14 04:02:40;;;;;;;11.50;8.50;;;;;;;2.03;100.00;151887.25;4954922;28;20430;-75
2022/11/14 04:05:44;;;;;;;10.50;8.43;;;;;;;2.04;100.00;151891.09;4967982;28;20545;-75
2022/11/14 04:08:51;;;;;;;13.30;9.40;;;;;;;2.03;100.00;151887.25;4957104;28;20947;-75
2022/11/14 04:11:55;;;;;;;12.50;9.20;;;;;;;2.04;100.00;151891.09;4956923;28;20493;-75
2022/11/14 04:15:00;;;;;;;11.30;8.40;;;;;;;1.98;100.00;151874.41;4969713;28;20594;-75
2022/11/14 04:18:05;;;;;;;15.20;9.57;;;;;;;2.02;100.00;151885.97;4953537;28;20865;-75
2022/11/14 04:21:09;;;;;;;11.30;8.30;;;;;;;1.98;100.00;151875.72;4952236;29;20811;-75
2022/11/14 04:24:15;;;;;;;11.00;8.60;;;;;;;2.03;100.00;151888.56;4972687;28;20518;-75
2022/11/14 04:27:19;;;;;;;10.10;7.43;;;;;;;1.99;100.00;151878.25;4970661;28;20498;-75
2022/11/14 04:30:23;;;;;;;11.57;8.00;;;;;;;2.02;100.00;151885.97;4974068;28;21012;-75
2022/11/14 04:33:33;;;;;;;10.80;8.47;;;;;;;2.07;100.00;151898.81;4975309;28;20501;-75
2022/11/14 04:36:37;;;;;;;10.40;8.67;;;;;;;2.08;100.00;151901.41;4973792;28;20806;-75
2022/11/14 04:39:43;;;;;;;10.90;7.87;;;;;;;2.10;100.00;151905.25;4971313;28;20430;-76
2022/11/14 04:42:48;;;;;;;9.23;7.70;;;;;;;2.15;100.00;151918.09;4963709;28;20976;-75
2022/11/14 04:45:52;;;;;;;9.67;7.70;;;;;;;2.18;100.00;151925.81;4953920;29;20748;-75
2022/11/14 04:48:56;;;;;;;9.80;7.67;;;;;;;2.17;100.00;151924.53;4957968;28;20508;-75
2022/11/14 04:52:00;;;;;;;10.37;8.00;;;;;;;2.20;100.00;151930.94;4966930;28;20532;-75
2022/11/14 04:55:07;;;;;;;10.10;7.67;;;;;;;2.22;100.00;151937.44;4958192;28;20490;-75
2022/11/14 04:58:11;;;;;;;10.07;7.10;;;;;;;2.25;100.00;151945.09;4965730;28;20447;-75
2022/11/14 05:01:15;;;;;;;10.63;7.67;;;;;;;2.27;100.00;151950.28;4959276;28;20433;-75
2022/11/14 05:04:20;;;;;;;10.63;7.40;;;;;;;2.29;100.00;151955.41;4974529;28;20429;-75
2022/11/14 05:07:24;;;;;;;7.93;5.90;;;;;;;2.29;100.00;151954.13;4965870;28;20466;-75
2022/11/14 05:10:29;;;;;;;9.37;7.03;;;;;;;2.28;100.00;151951.53;4966537;28;20460;-75
2022/11/14 05:13:34;;;;;;;9.70;7.43;;;;;;;2.28;100.00;151951.53;4956579;28;20983;-75
2022/11/14 05:16:38;;;;;;;8.53;6.77;;;;;;;2.25;100.00;151945.09;4965890;28;20969;-75
2022/11/14 05:19:42;;;;;;;7.53;6.00;;;;;;;2.23;100.00;151939.97;4973945;28;20815;-75
2022/11/14 05:22:47;;;;;;;7.73;6.60;;;;;;;2.22;100.00;151936.13;4974349;28;20932;-75
2022/11/14 05:26:00;;;;;;;8.30;6.70;;;;;;;2.26;100.00;151946.41;4961587;28;20514;-75
2022/11/14 05:29:05;;;;;;;7.43;6.13;;;;;;;2.33;100.00;151964.44;4983294;28;20782;-76
2022/11/14 05:32:09;;;;;;;9.87;6.83;;;;;;;2.34;100.00;151968.25;4985616;28;20431;-75
2022/11/14 05:35:13;;;;;;;9.97;7.40;;;;;;;2.33;100.00;151965.66;4966555;28;20514;-75
2022/11/14 05:38:17;;;;;;;9.43;7.60;;;;;;;2.34;100.00;151968.25;4957130;29;20671;-75
2022/11/14 05:41:23;;;;;;;9.23;7.70;;;;;;;2.37;100.00;151974.69;4956277;29;20438;-75
2022/11/14 05:44:27;;;;;;;9.60;7.70;;;;;;;2.35;100.00;151970.84;4962816;28;20876;-76
2022/11/14 05:47:31;;;;;;;11.83;7.10;;;;;;;2.36;100.00;151973.41;4955382;28;20509;-76
2022/11/14 05:50:35;;;;;;;10.27;8.00;;;;;;;2.34;100.00;151966.97;4966318;28;20490;-75
2022/11/14 05:53:40;;;;;;;11.33;8.33;;;;;;;2.35;100.00;151969.56;4960112;28;20476;-76
2022/11/14 05:56:46;;;;;;;9.87;7.10;;;;;;;2.39;100.00;151979.81;4974908;28;20441;-76
2022/11/14 05:59:50;;;;;;;9.60;8.47;;;;;;;2.40;100.00;151983.72;4974162;28;20506;-76
2022/11/14 06:02:56;;;;;;;8.33;6.67;;;;;;;2.45;100.00;151995.28;4962393;28;20955;-76
2022/11/14 06:06:01;;;;;;;10.30;7.50;;;;;;;2.46;100.00;151997.84;4955691;28;20498;-76
2022/11/14 06:09:05;;;;;;;9.57;7.60;;;;;;;2.47;100.00;152001.69;4966631;28;20533;-88
2022/11/14 06:12:10;;;;;;;10.40;7.40;;;;;;;2.54;100.00;152017.16;4967708;28;20440;-77
2022/11/14 06:15:14;;;;;;;9.03;7.10;;;;;;;2.56;100.00;152022.28;4955149;29;20451;-76
2022/11/14 06:18:19;;;;;;;10.07;7.70;;;;;;;2.59;100.00;152030.00;4960510;28;20450;-76
2022/11/14 06:21:25;;;;;;;10.53;8.23;;;;;;;2.61;100.00;152036.44;4976002;28;20933;-76
2022/11/14 06:24:29;;;;;;;8.93;7.80;;;;;;;2.64;100.00;152042.84;4951803;28;20875;-76
2022/11/14 06:27:35;;;;;;;9.27;7.73;;;;;;;2.71;100.00;152060.84;4956480;29;20517;-76
2022/11/14 06:30:40;;;;;;;10.47;8.17;;;;;;;2.73;100.00;152065.97;4946427;28;20550;-76
2022/11/14 06:33:44;;;;;;;10.27;7.67;;;;;;;2.74;100.00;152068.56;4955711;29;20455;-76
2022/11/14 06:36:48;;;;;;;8.83;7.50;;;;;;;2.78;100.00;152078.88;4955583;29;20488;-76
2022/11/14 06:39:52;;;;;;;12.63;8.50;;;;;;;2.85;100.00;152098.19;4953299;28;20478;-77
2022/11/14 06:42:58;;;;;;;10.47;7.93;;;;;;;2.92;100.00;152114.88;4935362;29;20424;-76
2022/11/14 06:46:02;;;;;;;10.20;8.00;;;;;;;2.98;100.00;152130.31;4934862;29;20424;-76
2022/11/14 06:49:07;;;;;;;12.23;8.27;;;;;;;3.01;100.00;152138.06;4943673;28;20506;-76
2022/11/14 06:52:11;;;;;;;13.77;8.10;;;;;;;3.07;100.00;152154.75;4935235;29;20941;-76
2022/11/14 06:55:16;;;;;;;7.70;6.80;;;;;;;3.19;100.00;152184.38;4935333;29;20435;-77
2022/11/14 06:58:21;;;;;;;10.53;7.13;;;;;;;3.32;100.00;152217.81;4950412;28;20477;-76
2022/11/14 07:01:25;;;;;;;14.27;9.10;;;;;;;3.35;100.00;152224.25;4937468;29;20451;-76
2022/11/14 07:04:30;;;;;;;12.10;8.53;;;;;;;3.39;100.00;152234.59;4956246;28;20446;-77
2022/11/14 07:07:34;;;;;;;11.30;8.70;;;;;;;3.50;100.00;152264.16;4948286;28;20997;-76
2022/11/14 07:10:39;;;;;;;9.97;7.37;;;;;;;3.61;100.00;152292.47;4955639;29;20435;-77
2022/11/14 07:13:44;;;;;;;7.80;7.00;;;;;;;3.77;100.00;152331.09;4965634;28;20779;-76
2022/11/14 07:16:49;;;;;;;8.87;6.27;;;;;;;3.74;100.00;152323.34;4947454;28;20873;-76
2022/11/14 07:19:53;;;;;;;7.53;6.00;;;;;;;3.68;100.00;152310.50;4956993;28;20453;-76
2022/11/14 07:22:57;;;;;;;7.00;6.27;;;;;;;3.68;100.00;152309.19;4951475;29;20435;-76
2022/11/14 07:26:03;;;;;;;8.47;5.80;;;;;;;3.67;100.00;152306.66;4961519;28;20474;-77
2022/11/14 07:29:08;;;;;;;9.47;6.77;;;;;;;3.64;100.00;152300.22;4955745;29;20952;-77
2022/11/14 07:32:13;;;;;;;8.17;6.70;;;;;;;3.58;100.00;152283.47;4967568;28;20457;-76
2022/11/14 07:35:17;;;;;;;9.40;7.53;;;;;;;3.56;100.00;152279.63;4962788;28;20458;-76
2022/11/14 07:38:22;;;;;;;12.80;9.30;;;;;;;3.53;100.00;152270.59;4954954;29;20430;-76
2022/11/14 07:41:26;;;;;;;8.83;7.07;;;;;;;3.51;100.00;152266.75;4954942;29;20500;-76
2022/11/14 07:44:32;;;;;;;9.70;7.83;;;;;;;3.49;100.00;152261.59;4964112;28;20886;-76
2022/11/14 07:47:36;;;;;;;11.33;9.17;;;;;;;3.49;100.00;152260.31;4954991;28;20463;-76
2022/11/14 07:50:40;;;;;;;9.77;7.77;;;;;;;3.53;100.00;152270.59;4973405;28;20932;-76
2022/11/14 07:53:44;;;;;;;13.57;9.10;;;;;;;3.56;100.00;152278.31;4964447;28;20469;-76
2022/11/14 07:56:48;;;;;;;11.90;9.43;;;;;;;3.61;100.00;152292.47;4967471;28;20445;-77
2022/11/14 07:59:54;;;;;;;10.50;8.60;;;;;;;3.71;100.00;152316.91;4955448;29;20547;-76
2022/11/14 08:02:58;;;;;;;12.30;8.77;;;;;;;3.70;100.00;152314.38;4976704;28;20425;-76
2022/11/14 08:06:03;;;;;;;12.63;8.57;;;;;;;3.82;100.00;152343.97;4980771;28;20451;-76
2022/11/14 08:09:08;;;;;;;10.93;8.40;;;;;;;3.88;100.00;152360.72;4992188;28;20425;-76
2022/11/14 08:12:12;;;;;;;9.23;7.93;;;;;;;3.93;100.00;152373.59;4961856;28;20471;-77
2022/11/14 08:15:18;;;;;;;9.13;7.00;;;;;;;3.97;100.00;152382.63;4957650;28;20454;-77
2022/11/14 08:18:22;;;;;;;10.00;7.53;;;;;;;4.02;100.00;152396.78;4972960;28;20804;-76
2022/11/14 08:21:26;;;;;;;13.00;8.93;;;;;;;4.01;100.00;152392.91;4971387;28;20461;-76
2022/11/14 08:24:30;;;;;;;12.13;8.23;;;;;;;4.03;100.00;152398.03;4964403;28;20482;-76
2022/11/14 08:27:34;;;;;;;11.80;8.43;;;;;;;4.09;100.00;152413.50;4973567;28;20517;-76
2022/11/14 08:30:40;;;;;;;9.50;7.37;;;;;;;4.20;100.00;152441.84;4972229;28;20454;-76
2022/11/14 08:33:44;;;;;;;11.03;7.67;;;;;;;4.28;100.00;152462.47;4953904;28;20467;-76
2022/11/14 08:36:48;;;;;;;9.20;6.30;;;;;;;4.31;100.00;152470.19;4953930;29;20423;-76
2022/11/14 08:39:53;;;;;;;7.80;6.27;;;;;;;4.44;100.00;152503.69;4961439;28;20780;-76
2022/11/14 08:43:00;;;;;;;7.13;6.43;;;;;;;4.51;100.00;152520.41;4961612;28;20976;-76
2022/11/14 08:46:06;;;;;;;7.33;6.43;;;;;;;4.66;100.00;152560.34;4971208;28;20454;-76
2022/11/14 08:49:10;;;;;;;6.50;5.20;;;;;;;4.75;100.00;152583.56;4966701;28;20463;-76
2022/11/14 08:52:14;;;;;;;7.63;5.70;;;;;;;4.80;100.00;152595.13;4971479;28;20641;-76
2022/11/14 08:55:19;;;;;;;7.10;5.23;;;;;;;4.99;100.00;152642.81;4961858;28;20476;-76
2022/11/14 08:58:23;;;;;;;9.50;5.80;;;;;;;5.12;100.00;152676.31;4961534;28;20451;-76
2022/11/14 09:01:28;;;;;;;7.57;5.30;;;;;;;5.34;100.00;152734.38;4953752;28;20446;-76
2022/11/14 09:04:32;;;;;;;6.83;4.90;;;;;;;5.56;100.00;152788.50;4957002;28;20590;-76
2022/11/14 09:07:37;;;;;;;5.87;4.53;;;;;;;5.54;100.00;152784.63;4956897;28;20465;-76
2022/11/14 09:10:41;;;;;;;6.20;4.57;;;;;;;5.72;100.00;152829.78;4970789;28;20882;-77
2022/11/14 09:13:45;;;;;;;9.53;4.40;;;;;;;5.74;100.00;152834.94;4965369;28;20457;-76
2022/11/14 09:16:51;;;;;;;6.30;5.20;;;;;;;5.77;100.00;152843.94;4969226;28;20477;-76
2022/11/14 09:19:55;;;;;;;4.13;3.73;;;;;;;5.98;100.00;152896.91;4963836;28;20532;-76
2022/11/14 09:23:00;;;;;;;4.27;3.60;;;;;;;6.26;100.00;152967.81;4957163;28;20588;-76
2022/11/14 09:26:05;;;;;;;4.70;3.73;;;;;;;6.36;100.00;152993.63;4965482;28;20529;-77
2022/11/14 09:29:09;;;;;;;5.07;3.30;;;;;;;6.55;100.00;153042.66;4961834;28;20453;-76
2022/11/14 09:32:14;;;;;;;4.63;3.70;;;;;;;6.46;100.00;153019.47;4961669;28;20553;-77
2022/11/14 09:35:18;;;;;;;3.70;2.93;;;;;;;6.45;100.00;153018.16;4967099;28;20501;-77
2022/11/14 09:38:22;;;;;;;7.50;3.80;;;;;;;6.54;100.00;153040.13;4963893;28;20478;-76
2022/11/14 09:41:35;;;;;;;4.10;3.30;;;;;;;6.72;100.00;153086.56;4987987;28;20440;-77
2022/11/14 09:44:50;;;;;;;4.77;3.37;;;;;;;6.82;100.00;153112.38;4981961;28;20440;-76
2022/11/14 09:48:08;;;;;;;5.00;3.00;;;;;;;6.96;100.00;153147.25;4970788;28;20545;-76
2022/11/14 09:51:16;;;;;;;5.50;4.43;;;;;;;7.05;100.00;153170.44;4970149;28;20445;-77
2022/11/14 09:54:23;;;;;;;4.93;4.00;;;;;;;7.07;100.00;153175.66;4967390;28;20458;-76
2022/11/14 09:57:27;;;;;;;5.70;3.77;;;;;;;7.13;100.00;153192.41;4973123;28;20489;-77
2022/11/14 10:00:42;;;;;;;4.50;4.00;;;;;;;7.14;100.00;153193.72;4964981;28;20497;-76
2022/11/14 10:03:53;;;;;;;4.67;4.17;;;;;;;7.22;100.00;153214.38;4968180;28;20864;-77
2022/11/14 10:07:24;;;;;;;5.60;4.30;;;;;;;7.22;100.00;153215.66;4983468;23;20538;-86
2022/11/14 10:10:40;;;;;;;5.80;5.20;;;;;;;7.32;100.00;153240.19;4999493;28;20487;-87
2022/11/14 10:14:08;;;;;;;8.90;5.37;;;;;;;7.35;100.00;153247.94;4991634;28;20456;-87
2022/11/14 10:17:23;;;;;;;6.70;4.70;;;;;;;7.48;100.00;153281.50;4995563;28;20448;-87
2022/11/14 10:20:33;;;;;;;6.03;5.43;;;;;;;7.54;100.00;153297.03;4982273;28;20457;-86
2022/11/14 10:23:44;;;;;;;6.43;5.40;;;;;;;7.62;100.00;153316.41;4982606;28;20484;-86
2022/11/14 10:26:55;;;;;;;6.03;5.27;;;;;;;7.68;100.00;153333.16;5001399;28;20527;-87
2022/11/14 10:33:09;;;;;;;5.53;4.93;;;;;;;7.73;100.00;153344.81;4950893;28;20500;-77
2022/11/14 10:36:21;;;;;;;5.30;4.37;;;;;;;7.78;100.00;153357.72;4990107;28;20425;-77
2022/11/14 10:39:39;;;;;;;5.67;4.73;;;;;;;7.92;100.00;153393.88;4985519;28;20433;-78
2022/11/14 10:42:47;;;;;;;5.47;4.80;;;;;;;8.01;100.00;153417.16;4993581;28;20437;-78
2022/11/14 10:45:55;;;;;;;5.10;4.43;;;;;;;7.96;100.00;153405.53;4975154;28;20418;-78
2022/11/14 10:49:00;;;;;;;4.20;3.60;;;;;;;8.07;100.00;153432.66;4977514;28;20468;-78
2022/11/14 10:52:12;;;;;;;6.43;3.80;;;;;;;8.16;100.00;153454.59;4974070;28;20573;-78
2022/11/14 10:55:20;;;;;;;5.37;3.80;;;;;;;8.21;100.00;153467.50;4979829;28;21074;-78
2022/11/14 10:58:25;;;;;;;5.50;4.03;;;;;;;8.18;100.00;153459.81;4990288;28;20466;-78
2022/11/14 11:01:35;;;;;;;4.00;3.60;;;;;;;8.24;100.00;153475.28;4993358;28;20417;-78
2022/11/14 11:04:45;;;;;;;8.07;4.03;;;;;;;8.31;100.00;153494.72;4993712;28;20414;-78
2022/11/14 11:14:35;;;;;;;5.13;3.77;;;;;;;8.58;100.00;153563.22;4977651;28;20445;-77
2022/11/14 11:17:54;;;;;;;3.10;2.80;;;;;;;8.71;100.00;153595.56;4989686;28;20971;-78
2022/11/14 11:21:05;;;;;;;3.03;2.73;;;;;;;8.82;100.00;153625.28;4974715;28;20491;-78
2022/11/14 11:24:12;;;;;;;3.50;3.10;;;;;;;8.96;100.00;153660.19;4992096;28;20491;-78
2022/11/14 11:27:22;;;;;;;3.97;3.10;;;;;;;9.13;100.00;153705.44;4980092;28;20473;-78
2022/11/14 11:30:28;;;;;;;2.60;2.40;;;;;;;9.19;100.00;153719.69;4986944;28;20545;-77
2022/11/14 11:33:34;;;;;;;3.20;2.70;;;;;;;9.19;100.00;153720.97;4994117;28;20514;-77
2022/11/14 11:36:44;;;;;;;4.20;3.37;;;;;;;9.16;100.00;153711.91;4993921;28;20968;-77
2022/11/14 11:39:54;;;;;;;7.17;4.17;;;;;;;9.13;100.00;153704.19;4975121;28;20410;-77
2022/11/14 11:43:03;;;;;;;2.90;2.60;;;;;;;9.30;100.00;153748.13;4988905;28;20811;-77
2022/11/14 11:46:13;;;;;;;3.83;3.10;;;;;;;9.34;100.00;153757.22;4991434;28;20994;-77
2022/11/14 11:49:25;;;;;;;4.00;2.60;;;;;;;9.52;100.00;153803.78;4994215;28;20472;-77
2022/11/14 11:52:34;;;;;;;11.20;3.50;;;;;;;9.51;100.00;153802.47;4991323;28;20491;-78
2022/11/14 11:55:44;;;;;;;3.80;2.87;;;;;;;9.52;100.00;153805.06;4995174;28;20433;-77
2022/11/14 11:58:50;;;;;;;4.07;3.43;;;;;;;9.57;100.00;153818.00;4995803;28;20525;-78
2022/11/14 12:01:55;;;;;;;3.80;2.60;;;;;;;9.64;100.00;153836.09;4978192;28;20564;-78
2022/11/14 12:05:01;;;;;;;2.70;2.17;;;;;;;9.55;100.00;153812.84;4990585;28;20504;-77
2022/11/14 12:08:08;;;;;;;2.93;2.30;;;;;;;9.46;100.00;153789.53;4984402;28;20493;-78
2022/11/14 12:11:20;;;;;;;2.87;2.07;;;;;;;9.40;100.00;153774.00;4991635;28;20795;-77
2022/11/14 12:14:37;;;;;;;3.13;2.03;;;;;;;9.40;100.00;153772.75;4993197;28;20417;-77
2022/11/14 12:18:12;;;;;;;2.37;1.90;;;;;;;9.38;100.00;153768.84;4993170;28;20452;-77
2022/11/14 12:21:54;;;;;;;2.50;2.10;;;;;;;9.54;100.00;153808.94;4991375;28;21064;-78
2022/11/14 12:25:32;;;;;;;2.53;1.97;;;;;;;9.51;100.00;153802.47;4993153;28;20588;-78
2022/11/14 12:29:05;;;;;;;3.37;2.83;;;;;;;9.50;100.00;153799.91;4979717;28;20511;-77
2022/11/14 12:32:14;;;;;;;2.97;2.40;;;;;;;9.55;100.00;153812.84;4973583;28;20473;-78
2022/11/14 12:35:24;;;;;;;3.67;2.80;;;;;;;9.66;100.00;153840.00;4973806;28;20406;-78
2022/11/14 12:38:35;;;;;;;2.87;2.20;;;;;;;9.94;100.00;153911.16;4983737;28;20460;-77
2022/11/14 12:41:41;;;;;;;3.67;2.50;;;;;;;10.09;100.00;153949.97;4973491;28;20449;-77
2022/11/14 12:44:48;;;;;;;3.47;2.13;;;;;;;10.00;100.00;153926.69;4973946;28;20434;-77
2022/11/14 12:48:22;;;;;;;2.30;1.83;;;;;;;9.98;100.00;153921.53;4979091;28;20519;-78
2022/11/14 12:51:49;;;;;;;4.20;2.40;;;;;;;10.01;100.00;153930.56;4992756;28;20405;-78
2022/11/14 12:54:54;;;;;;;2.80;2.23;;;;;;;10.03;100.00;153934.47;4985250;28;20806;-78
2022/11/14 12:58:05;;;;;;;2.67;2.40;;;;;;;10.05;100.00;153939.63;4989915;28;20461;-78
2022/11/14 13:01:31;;;;;;;4.03;2.50;;;;;;;10.22;100.00;153983.66;4992718;28;20401;-78
2022/11/14 13:04:40;;;;;;;3.10;2.70;;;;;;;10.28;100.00;153999.22;4993122;28;20417;-78
2022/11/14 13:07:51;;;;;;;3.17;2.43;;;;;;;10.40;100.00;154030.31;4991944;28;21023;-78
2022/11/14 13:10:57;;;;;;;2.67;2.00;;;;;;;10.39;100.00;154027.69;4992473;28;20516;-78
2022/11/14 13:24:24;;;;;;;3.50;2.60;;;;;;;10.57;100.00;154074.31;4985662;28;20452;-78
2022/11/14 13:27:30;;;;;;;4.10;2.67;;;;;;;10.46;100.00;154045.81;4996058;28;20475;-78
2022/11/14 13:31:06;;;;;;;3.13;2.33;;;;;;;10.54;100.00;154065.28;4988459;28;20500;-78
2022/11/14 13:34:34;;;;;;;3.53;2.80;;;;;;;10.49;100.00;154053.59;4949551;28;20558;-78
2022/11/14 13:38:14;;;;;;;4.07;2.80;;;;;;;10.60;100.00;154082.06;5000089;28;20424;-78
2022/11/14 13:42:07;;;;;;;6.93;3.57;;;;;;;10.76;100.00;154122.22;4981451;28;20441;-77
2022/11/14 13:45:39;;;;;;;3.50;3.00;;;;;;;10.69;100.00;154104.09;4992468;28;20444;-78
2022/11/14 13:48:56;;;;;;;3.43;2.60;;;;;;;10.61;100.00;154084.69;4975223;28;20520;-77
2022/11/14 13:52:02;;;;;;;6.80;4.80;;;;;;;10.69;100.00;154105.41;4988240;28;20545;-77
2022/11/14 13:55:07;;;;;;;4.23;2.40;;;;;;;10.79;100.00;154131.28;4995440;28;20421;-78
2022/11/14 13:58:25;;;;;;;3.97;3.20;;;;;;;10.77;100.00;154124.81;4995257;28;20437;-78
2022/11/14 14:01:42;;;;;;;4.07;2.90;;;;;;;10.81;100.00;154136.47;4990935;28;20476;-78
2022/11/14 14:04:57;;;;;;;3.73;2.93;;;;;;;10.80;100.00;154132.59;4982354;28;20998;-77
2022/11/14 14:08:11;;;;;;;3.97;3.27;;;;;;;10.73;100.00;154115.75;4990941;28;20508;-78
2022/11/14 14:11:42;;;;;;;3.93;2.93;;;;;;;10.72;100.00;154111.88;4989004;28;20792;-78
2022/11/14 14:15:08;;;;;;;5.27;2.97;;;;;;;10.58;100.00;154076.91;4995500;28;20465;-78
2022/11/14 14:18:24;;;;;;;3.00;2.60;;;;;;;10.65;100.00;154095.03;4986863;28;20497;-78
2022/11/14 14:21:38;;;;;;;5.80;3.80;;;;;;;10.67;100.00;154100.19;4994613;28;20477;-79
2022/11/14 14:24:53;;;;;;;9.40;5.40;;;;;;;10.72;100.00;154113.13;4995339;28;20476;-77
2022/11/14 14:28:07;;;;;;;8.00;5.30;;;;;;;10.62;100.00;154087.25;4976616;28;20457;-79
2022/11/14 14:31:18;;;;;;;7.80;4.80;;;;;;;10.68;100.00;154101.50;4994594;28;20560;-79
2022/11/14 14:34:27;;;;;;;6.03;3.63;;;;;;;10.76;100.00;154122.22;4983161;28;20932;-79
2022/11/14 14:37:33;;;;;;;5.07;3.63;;;;;;;10.65;100.00;154095.03;4991306;28;20518;-78
2022/11/14 14:40:43;;;;;;;4.03;3.53;;;;;;;10.57;100.00;154074.31;4983203;28;20480;-78
2022/11/14 14:43:55;;;;;;;4.20;2.80;;;;;;;10.59;100.00;154079.47;4981575;28;20453;-79
2022/11/14 14:47:15;;;;;;;3.80;2.70;;;;;;;10.58;100.00;154075.59;4993473;28;20541;-78